createdAt,value
2019-03-02T00:00:18.238Z,0
2019-03-02T00:01:20.047Z,0
2019-03-02T00:02:20.499Z,0
2019-03-02T00:03:17.778Z,0
2019-03-02T00:04:19.675Z,0
2019-03-02T00:05:20.791Z,0
2019-03-02T00:06:18.629Z,0
2019-03-02T00:07:20.254Z,0
2019-03-02T00:08:18.393Z,0
2019-03-02T00:09:18.418Z,0
2019-03-02T00:10:18.756Z,0
2019-03-02T00:11:20.652Z,0
2019-03-02T00:12:18.474Z,0
2019-03-02T00:13:19.037Z,0
2019-03-02T00:14:21.798Z,0
2019-03-02T00:15:18.270Z,0
2019-03-02T00:16:19.085Z,0
2019-03-02T00:17:22.226Z,0
2019-03-02T00:18:18.643Z,0
2019-03-02T00:19:18.880Z,0
2019-03-02T00:20:22.818Z,0
2019-03-02T00:21:18.396Z,0
2019-03-02T00:22:18.674Z,0
2019-03-02T00:23:23.110Z,0
2019-03-02T00:24:18.455Z,0
2019-03-02T00:25:18.732Z,0
2019-03-02T00:26:19.884Z,0
2019-03-02T00:27:21.179Z,0
2019-03-02T00:28:18.538Z,0
2019-03-02T00:29:20.423Z,0
2019-03-02T00:30:23.356Z,0
2019-03-02T00:31:18.325Z,0
2019-03-02T00:32:19.868Z,0
2019-03-02T00:33:24.284Z,0
2019-03-02T00:34:18.393Z,0
2019-03-02T00:35:18.942Z,0
2019-03-02T00:36:21.716Z,0
2019-03-02T00:37:19.234Z,0
2019-03-02T00:38:19.034Z,0
2019-03-02T00:39:23.776Z,0
2019-03-02T00:40:18.766Z,0
2019-03-02T00:41:18.805Z,0
2019-03-02T00:42:22.095Z,0
2019-03-02T00:43:19.096Z,0
2019-03-02T00:44:18.587Z,0
2019-03-02T00:45:23.105Z,0
2019-03-02T00:46:20.595Z,0
2019-03-02T00:47:19.175Z,0
2019-03-02T00:48:20.486Z,0
2019-03-02T00:49:22.767Z,0
2019-03-02T00:50:18.964Z,0
2019-03-02T00:51:19.953Z,0
2019-03-02T00:52:20.403Z,0
2019-03-02T00:53:19.300Z,0
2019-03-02T00:54:20.430Z,0
2019-03-02T00:55:18.798Z,0
2019-03-02T00:56:19.085Z,0
2019-03-02T00:57:23.354Z,0
2019-03-02T00:58:19.423Z,0
2019-03-02T00:59:19.164Z,0
2019-03-02T01:00:23.222Z,0
2019-03-02T01:01:19.452Z,0
2019-03-02T01:02:19.985Z,0
2019-03-02T01:03:24.406Z,0
2019-03-02T01:04:22.686Z,0
2019-03-02T01:05:19.265Z,0
2019-03-02T01:06:21.963Z,0
2019-03-02T01:07:20.704Z,0
2019-03-02T01:08:19.845Z,0
2019-03-02T01:09:21.338Z,0
2019-03-02T01:10:24.837Z,0
2019-03-02T01:11:19.637Z,0
2019-03-02T01:12:19.136Z,0
2019-03-02T01:13:23.138Z,0
2019-03-02T01:14:19.428Z,0
2019-03-02T01:15:19.714Z,0
2019-03-02T01:16:22.282Z,0
2019-03-02T01:17:20.032Z,0
2019-03-02T01:18:21.199Z,0
2019-03-02T01:19:24.570Z,0
2019-03-02T01:20:19.294Z,0
2019-03-02T01:21:19.311Z,0
2019-03-02T01:22:24.285Z,0
2019-03-02T01:23:19.611Z,0
2019-03-02T01:24:19.360Z,0
2019-03-02T01:25:22.400Z,0
2019-03-02T01:26:23.804Z,0
2019-03-02T01:27:19.944Z,0
2019-03-02T01:28:19.970Z,0
2019-03-02T01:29:23.471Z,0
2019-03-02T01:30:19.756Z,0
2019-03-02T01:31:20.034Z,0
2019-03-02T01:32:24.744Z,0
2019-03-02T01:33:20.064Z,0
2019-03-02T01:34:20.089Z,0
2019-03-02T01:35:22.331Z,0
2019-03-02T01:36:19.872Z,0
2019-03-02T01:37:19.618Z,0
2019-03-02T01:38:23.051Z,0
2019-03-02T01:39:20.182Z,0
2019-03-02T01:40:20.727Z,0
2019-03-02T01:41:24.299Z,0
2019-03-02T01:42:20.247Z,0
2019-03-02T01:43:19.734Z,0
2019-03-02T01:44:24.168Z,0
2019-03-02T01:45:20.040Z,0
2019-03-02T01:46:20.315Z,0
2019-03-02T01:47:22.421Z,0
2019-03-02T01:48:22.743Z,0
2019-03-02T01:49:20.641Z,0
2019-03-02T01:50:21.456Z,0
2019-03-02T01:51:23.065Z,0
2019-03-02T01:52:20.448Z,0
2019-03-02T01:53:20.486Z,0
2019-03-02T01:54:23.604Z,0
2019-03-02T01:55:20.240Z,0
2019-03-02T01:56:20.799Z,0
2019-03-02T01:57:24.044Z,0
2019-03-02T01:58:20.552Z,0
2019-03-02T01:59:20.042Z,0
2019-03-02T02:00:22.791Z,0
2019-03-02T02:01:24.729Z,0
2019-03-02T02:02:20.362Z,0
2019-03-02T02:03:21.054Z,0
2019-03-02T02:04:25.098Z,0
2019-03-02T02:05:20.157Z,0
2019-03-02T02:06:20.710Z,0
2019-03-02T02:07:26.108Z,0
2019-03-02T02:08:20.738Z,0
2019-03-02T02:09:21.022Z,0
2019-03-02T02:10:20.783Z,0
2019-03-02T02:11:25.438Z,0
2019-03-02T02:12:20.845Z,0
2019-03-02T02:13:20.332Z,0
2019-03-02T02:14:26.079Z,0
2019-03-02T02:15:20.690Z,0
2019-03-02T02:16:20.631Z,0
2019-03-02T02:17:25.769Z,0
2019-03-02T02:18:20.938Z,0
2019-03-02T02:19:20.950Z,0
2019-03-02T02:20:23.687Z,0
2019-03-02T02:21:23.595Z,0
2019-03-02T02:22:21.027Z,0
2019-03-02T02:23:22.316Z,0
2019-03-02T02:24:24.814Z,0
2019-03-02T02:25:21.066Z,0
2019-03-02T02:26:21.201Z,0
2019-03-02T02:27:26.665Z,0
2019-03-02T02:28:20.896Z,0
2019-03-02T02:29:21.420Z,0
2019-03-02T02:30:31.500Z,0
2019-03-02T02:31:21.187Z,0
2019-03-02T02:32:28.228Z,0
2019-03-02T02:33:20.962Z,0
2019-03-02T02:34:29.082Z,0
2019-03-02T02:35:21.269Z,0
2019-03-02T02:36:27.089Z,0
2019-03-02T02:37:21.583Z,0
2019-03-02T02:38:26.079Z,0
2019-03-02T02:39:21.904Z,0
2019-03-02T02:40:23.190Z,0
2019-03-02T02:41:29.799Z,0
2019-03-02T02:42:21.142Z,0
2019-03-02T02:43:29.277Z,0
2019-03-02T02:44:21.176Z,0
2019-03-02T02:45:24.545Z,0
2019-03-02T02:46:20.967Z,0
2019-03-02T02:47:23.455Z,0
2019-03-02T02:48:26.239Z,0
2019-03-02T02:49:21.588Z,0
2019-03-02T02:50:31.397Z,0
2019-03-02T02:51:21.857Z,0
2019-03-02T02:52:30.107Z,0
2019-03-02T02:53:22.148Z,0
2019-03-02T02:54:29.498Z,0
2019-03-02T02:55:21.654Z,0
2019-03-02T02:56:26.308Z,0
2019-03-02T02:57:22.210Z,0
2019-03-02T02:58:26.724Z,0
2019-03-02T02:59:22.010Z,0
2019-03-02T03:00:25.690Z,0
2019-03-02T03:01:21.771Z,0
2019-03-02T03:02:21.781Z,0
2019-03-02T03:03:29.738Z,0
2019-03-02T03:04:21.816Z,0
2019-03-02T03:05:24.728Z,0
2019-03-02T03:06:22.116Z,0
2019-03-02T03:07:23.495Z,0
2019-03-02T03:08:21.895Z,0
2019-03-02T03:09:21.662Z,0
2019-03-02T03:10:27.696Z,0
2019-03-02T03:11:22.225Z,0
2019-03-02T03:12:27.564Z,0
2019-03-02T03:13:21.984Z,0
2019-03-02T03:14:28.403Z,0
2019-03-02T03:15:22.300Z,0
2019-03-02T03:16:25.802Z,0
2019-03-02T03:17:22.067Z,0
2019-03-02T03:18:23.787Z,0
2019-03-02T03:19:25.984Z,0
2019-03-02T03:20:22.386Z,0
2019-03-02T03:21:29.795Z,0
2019-03-02T03:22:21.892Z,0
2019-03-02T03:23:28.752Z,0
2019-03-02T03:24:21.933Z,0
2019-03-02T03:25:24.708Z,0
2019-03-02T03:26:22.506Z,0
2019-03-02T03:27:23.842Z,0
2019-03-02T03:28:25.895Z,0
2019-03-02T03:29:22.290Z,0
2019-03-02T03:30:39.497Z,0
2019-03-02T03:31:36.088Z,0
2019-03-02T03:32:22.766Z,0
2019-03-02T03:33:22.923Z,0
2019-03-02T03:34:37.219Z,0
2019-03-02T03:35:27.291Z,0
2019-03-02T03:36:22.437Z,0
2019-03-02T03:37:23.859Z,0
2019-03-02T03:38:24.792Z,0
2019-03-02T03:39:22.741Z,0
2019-03-02T03:40:30.459Z,0
2019-03-02T03:41:22.782Z,0
2019-03-02T03:42:31.919Z,0
2019-03-02T03:43:22.286Z,0
2019-03-02T03:44:34.122Z,0
2019-03-02T03:45:22.385Z,0
2019-03-02T03:46:29.557Z,0
2019-03-02T03:47:22.626Z,0
2019-03-02T03:48:27.148Z,0
2019-03-02T03:49:22.410Z,0
2019-03-02T03:50:24.553Z,0
2019-03-02T03:51:26.011Z,0
2019-03-02T03:52:22.731Z,0
2019-03-02T03:53:31.799Z,0
2019-03-02T03:54:22.824Z,0
2019-03-02T03:55:31.970Z,0
2019-03-02T03:56:22.795Z,0
2019-03-02T03:57:29.163Z,0
2019-03-02T03:58:22.845Z,0
2019-03-02T03:59:27.880Z,0
2019-03-02T04:00:22.615Z,0
2019-03-02T04:01:28.196Z,0
2019-03-02T04:02:22.668Z,0
2019-03-02T04:03:24.493Z,0
2019-03-02T04:04:29.029Z,0
2019-03-02T04:05:23.236Z,0
2019-03-02T04:06:29.358Z,0
2019-03-02T04:07:22.737Z,0
2019-03-02T04:08:28.714Z,0
2019-03-02T04:09:23.313Z,0
2019-03-02T04:10:32.550Z,0
2019-03-02T04:11:22.832Z,0
2019-03-02T04:12:30.510Z,0
2019-03-02T04:13:23.123Z,0
2019-03-02T04:14:28.238Z,0
2019-03-02T04:15:22.896Z,0
2019-03-02T04:16:29.524Z,0
2019-03-02T04:17:22.935Z,0
2019-03-02T04:18:25.614Z,0
2019-03-02T04:19:23.546Z,0
2019-03-02T04:20:23.259Z,0
2019-03-02T04:21:31.748Z,0
2019-03-02T04:22:23.283Z,0
2019-03-02T04:23:30.777Z,0
2019-03-02T04:24:23.589Z,0
2019-03-02T04:25:28.387Z,0
2019-03-02T04:26:23.363Z,0
2019-03-02T04:27:24.511Z,0
2019-03-02T04:28:23.124Z,0
2019-03-02T04:29:26.393Z,0
2019-03-02T04:30:30.257Z,0
2019-03-02T04:31:22.929Z,0
2019-03-02T04:32:29.620Z,0
2019-03-02T04:33:23.494Z,0
2019-03-02T04:34:29.953Z,0
2019-03-02T04:35:23.560Z,0
2019-03-02T04:36:23.336Z,0
2019-03-02T04:37:28.565Z,0
2019-03-02T04:38:23.842Z,0
2019-03-02T04:39:24.564Z,0
2019-03-02T04:40:31.951Z,0
2019-03-02T04:41:23.377Z,0
2019-03-02T04:42:24.269Z,0
2019-03-02T04:43:23.903Z,0
2019-03-02T04:44:25.667Z,0
2019-03-02T04:45:23.188Z,0
2019-03-02T04:46:24.522Z,0
2019-03-02T04:47:30.442Z,0
2019-03-02T04:48:23.760Z,0
2019-03-02T04:49:25.278Z,0
2019-03-02T04:50:26.928Z,0
2019-03-02T04:51:23.553Z,0
2019-03-02T04:52:24.913Z,0
2019-03-02T04:53:29.468Z,0
2019-03-02T04:54:24.014Z,0
2019-03-02T04:55:24.028Z,0
2019-03-02T04:56:26.520Z,0
2019-03-02T04:57:23.403Z,0
2019-03-02T04:58:23.676Z,0
2019-03-02T04:59:27.010Z,0
2019-03-02T05:00:23.730Z,0
2019-03-02T05:01:23.735Z,0
2019-03-02T05:02:26.729Z,0
2019-03-02T05:03:24.524Z,0
2019-03-02T05:04:24.313Z,0
2019-03-02T05:05:23.808Z,0
2019-03-02T05:06:26.027Z,0
2019-03-02T05:07:26.634Z,0
2019-03-02T05:08:24.131Z,0
2019-03-02T05:09:26.680Z,0
2019-03-02T05:10:28.558Z,0
2019-03-02T05:11:23.919Z,0
2019-03-02T05:12:24.706Z,0
2019-03-02T05:13:30.408Z,0
2019-03-02T05:14:24.238Z,0
2019-03-02T05:15:24.947Z,0
2019-03-02T05:16:28.802Z,0
2019-03-02T05:17:24.294Z,0
2019-03-02T05:18:27.056Z,0
2019-03-02T05:19:29.084Z,0
2019-03-02T05:20:24.091Z,0
2019-03-02T05:21:24.634Z,0
2019-03-02T05:22:25.311Z,0
2019-03-02T05:23:24.147Z,0
2019-03-02T05:24:24.422Z,0
2019-03-02T05:25:25.974Z,0
2019-03-02T05:26:24.725Z,0
2019-03-02T05:27:24.215Z,0
2019-03-02T05:28:24.238Z,0
2019-03-02T05:29:26.752Z,0
2019-03-02T05:30:26.670Z,0
2019-03-02T05:31:24.307Z,0
2019-03-02T05:32:26.471Z,0
2019-03-02T05:33:30.871Z,0
2019-03-02T05:34:24.079Z,0
2019-03-02T05:35:26.268Z,0
2019-03-02T05:36:29.129Z,0
2019-03-02T05:37:24.676Z,0
2019-03-02T05:38:25.303Z,0
2019-03-02T05:39:26.629Z,0
2019-03-02T05:40:27.743Z,0
2019-03-02T05:41:24.212Z,0
2019-03-02T05:42:24.503Z,0
2019-03-02T05:43:30.247Z,0
2019-03-02T05:44:24.964Z,0
2019-03-02T05:45:28.604Z,0
2019-03-02T05:46:29.771Z,0
2019-03-02T05:47:24.846Z,0
2019-03-02T05:48:27.050Z,0
2019-03-02T05:49:27.747Z,0
2019-03-02T05:50:26.437Z,0
2019-03-02T05:51:24.658Z,0
2019-03-02T05:52:26.876Z,0
2019-03-02T05:53:26.679Z,0
2019-03-02T05:54:24.713Z,0
2019-03-02T05:55:27.407Z,0
2019-03-02T05:56:29.229Z,0
2019-03-02T05:57:24.772Z,0
2019-03-02T05:58:26.066Z,0
2019-03-02T05:59:28.998Z,0
2019-03-02T06:00:24.837Z,0
2019-03-02T06:01:24.853Z,0
2019-03-02T06:02:27.286Z,0
2019-03-02T06:03:25.598Z,0
2019-03-02T06:04:28.887Z,0
2019-03-02T06:05:25.185Z,0
2019-03-02T06:06:25.335Z,0
2019-03-02T06:07:24.952Z,0
2019-03-02T06:08:25.248Z,0
2019-03-02T06:09:25.779Z,0
2019-03-02T06:10:29.758Z,0
2019-03-02T06:11:24.768Z,0
2019-03-02T06:12:25.541Z,0
2019-03-02T06:13:28.235Z,0
2019-03-02T06:14:26.650Z,0
2019-03-02T06:15:25.107Z,0
2019-03-02T06:16:28.763Z,0
2019-03-02T06:17:25.668Z,0
2019-03-02T06:18:25.159Z,0
2019-03-02T06:19:30.494Z,0
2019-03-02T06:20:25.459Z,0
2019-03-02T06:21:25.224Z,0
2019-03-02T06:22:28.486Z,0
2019-03-02T06:23:26.565Z,0
2019-03-02T06:24:25.796Z,0
2019-03-02T06:25:30.260Z,0
2019-03-02T06:26:25.048Z,0
2019-03-02T06:27:25.322Z,0
2019-03-02T06:28:29.646Z,0
2019-03-02T06:29:25.365Z,0
2019-03-02T06:30:25.666Z,0
2019-03-02T06:31:27.901Z,0
2019-03-02T06:32:29.835Z,0
2019-03-02T06:33:25.984Z,0
2019-03-02T06:34:29.326Z,0
2019-03-02T06:35:28.971Z,0
2019-03-02T06:36:25.766Z,0
2019-03-02T06:37:27.409Z,0
2019-03-02T06:38:28.826Z,0
2019-03-02T06:39:25.817Z,0
2019-03-02T06:40:30.556Z,0
2019-03-02T06:41:25.848Z,0
2019-03-02T06:42:25.868Z,0
2019-03-02T06:43:28.722Z,0
2019-03-02T06:44:25.904Z,0
2019-03-02T06:45:25.920Z,0
2019-03-02T06:46:30.238Z,0
2019-03-02T06:47:25.960Z,0
2019-03-02T06:48:25.726Z,0
2019-03-02T06:49:30.354Z,0
2019-03-02T06:50:26.023Z,0
2019-03-02T06:51:26.029Z,0
2019-03-02T06:52:32.280Z,0
2019-03-02T06:53:26.068Z,0
2019-03-02T06:54:26.389Z,0
2019-03-02T06:55:29.163Z,0
2019-03-02T06:56:25.868Z,0
2019-03-02T06:57:26.145Z,0
2019-03-02T06:58:31.698Z,0
2019-03-02T06:59:25.929Z,0
2019-03-02T07:00:26.477Z,0
2019-03-02T07:01:29.546Z,0
2019-03-02T07:02:25.968Z,5
2019-03-02T07:03:26.512Z,5
2019-03-02T07:04:30.676Z,5
2019-03-02T07:05:29.679Z,5
2019-03-02T07:06:26.573Z,5
2019-03-02T07:07:30.917Z,5
2019-03-02T07:08:29.416Z,5
2019-03-02T07:09:26.640Z,5
2019-03-02T07:10:28.992Z,5
2019-03-02T07:11:26.134Z,5
2019-03-02T07:12:26.151Z,5
2019-03-02T07:13:29.671Z,5
2019-03-02T07:14:28.736Z,5
2019-03-02T07:15:26.206Z,5
2019-03-02T07:16:29.576Z,5
2019-03-02T07:17:27.575Z,5
2019-03-02T07:18:26.792Z,5
2019-03-02T07:19:26.615Z,5
2019-03-02T07:20:29.723Z,5
2019-03-02T07:21:26.580Z,5
2019-03-02T07:22:27.198Z,5
2019-03-02T07:23:32.292Z,5
2019-03-02T07:24:29.377Z,5
2019-03-02T07:25:26.409Z,5
2019-03-02T07:26:28.839Z,5
2019-03-02T07:27:29.547Z,5
2019-03-02T07:28:26.454Z,5
2019-03-02T07:29:27.836Z,5
2019-03-02T07:30:26.220Z,5
2019-03-02T07:31:26.511Z,5
2019-03-02T07:32:27.046Z,5
2019-03-02T07:33:26.806Z,5
2019-03-02T07:34:26.553Z,5
2019-03-02T07:35:30.610Z,5
2019-03-02T07:36:27.630Z,5
2019-03-02T07:37:27.143Z,5
2019-03-02T07:38:29.719Z,5
2019-03-02T07:39:28.682Z,5
2019-03-02T07:40:28.248Z,5
2019-03-02T07:41:31.001Z,5
2019-03-02T07:42:29.723Z,5
2019-03-02T07:43:26.728Z,5
2019-03-02T07:44:28.956Z,5
2019-03-02T07:45:27.365Z,5
2019-03-02T07:46:27.045Z,5
2019-03-02T07:47:30.908Z,5
2019-03-02T07:48:27.084Z,5
2019-03-02T07:49:27.095Z,5
2019-03-02T07:50:31.948Z,5
2019-03-02T07:51:27.404Z,10
2019-03-02T07:52:28.011Z,10
2019-03-02T07:53:33.225Z,10
2019-03-02T07:54:27.191Z,10
2019-03-02T07:55:29.560Z,10
2019-03-02T07:56:29.528Z,10
2019-03-02T07:57:27.241Z,10
2019-03-02T07:58:28.790Z,10
2019-03-02T07:59:31.755Z,10
2019-03-02T08:00:27.035Z,10
2019-03-02T08:01:27.581Z,10
2019-03-02T08:02:31.895Z,10
2019-03-02T08:03:27.882Z,10
2019-03-02T08:04:27.659Z,10
2019-03-02T08:05:27.132Z,15
2019-03-02T08:06:31.946Z,15
2019-03-02T08:07:26.906Z,10
2019-03-02T08:08:26.923Z,10
2019-03-02T08:09:30.647Z,10
2019-03-02T08:10:27.519Z,10
2019-03-02T08:11:28.705Z,10
2019-03-02T08:12:32.912Z,15
2019-03-02T08:13:27.809Z,15
2019-03-02T08:14:27.315Z,20
2019-03-02T08:15:31.361Z,10
2019-03-02T08:16:27.961Z,10
2019-03-02T08:17:27.630Z,5
2019-03-02T08:18:33.942Z,10
2019-03-02T08:19:27.905Z,10
2019-03-02T08:20:32.585Z,10
2019-03-02T08:21:27.151Z,10
2019-03-02T08:22:28.226Z,15
2019-03-02T08:23:27.726Z,15
2019-03-02T08:24:28.001Z,15
2019-03-02T08:25:27.492Z,15
2019-03-02T08:26:29.014Z,10
2019-03-02T08:27:30.756Z,10
2019-03-02T08:28:27.819Z,10
2019-03-02T08:29:30.984Z,15
2019-03-02T08:30:29.804Z,15
2019-03-02T08:31:27.603Z,10
2019-03-02T08:32:31.207Z,20
2019-03-02T08:33:30.574Z,20
2019-03-02T08:34:27.918Z,15
2019-03-02T08:35:28.474Z,15
2019-03-02T08:36:28.494Z,15
2019-03-02T08:37:32.940Z,15
2019-03-02T08:38:28.288Z,10
2019-03-02T08:39:28.017Z,10
2019-03-02T08:40:31.498Z,15
2019-03-02T08:41:29.302Z,15
2019-03-02T08:42:28.332Z,15
2019-03-02T08:43:27.559Z,15
2019-03-02T08:44:29.285Z,25
2019-03-02T08:45:30.894Z,25
2019-03-02T08:46:27.887Z,30
2019-03-02T08:47:28.425Z,30
2019-03-02T08:48:28.438Z,30
2019-03-02T08:49:27.936Z,30
2019-03-02T08:50:28.296Z,25
2019-03-02T08:51:29.170Z,20
2019-03-02T08:52:28.299Z,20
2019-03-02T08:53:28.750Z,25
2019-03-02T08:54:30.511Z,35
2019-03-02T08:55:29.687Z,35
2019-03-02T08:56:28.066Z,35
2019-03-02T08:57:30.257Z,35
2019-03-02T08:58:29.894Z,30
2019-03-02T08:59:28.121Z,30
2019-03-02T09:00:28.441Z,30
2019-03-02T09:01:28.939Z,25
2019-03-02T09:02:28.436Z,25
2019-03-02T09:03:30.214Z,25
2019-03-02T09:04:28.739Z,20
2019-03-02T09:05:55.529Z,30
2019-03-02T09:06:30.817Z,30
2019-03-02T09:07:28.789Z,30
2019-03-02T09:08:29.085Z,35
2019-03-02T09:09:29.100Z,40
2019-03-02T09:10:30.534Z,40
2019-03-02T09:11:29.131Z,45
2019-03-02T09:12:31.504Z,50
2019-03-02T09:13:30.879Z,50
2019-03-02T09:14:28.922Z,50
2019-03-02T09:15:34.975Z,50
2019-03-02T09:16:28.427Z,55
2019-03-02T09:17:28.187Z,50
2019-03-02T09:18:45.296Z,55
2019-03-02T09:19:31.265Z,55
2019-03-02T09:20:32.197Z,55
2019-03-02T09:21:29.052Z,55
2019-03-02T09:22:32.280Z,55
2019-03-02T09:23:28.560Z,60
2019-03-02T09:24:29.514Z,60
2019-03-02T09:25:32.703Z,60
2019-03-02T09:26:29.148Z,60
2019-03-02T09:27:28.649Z,60
2019-03-02T09:28:28.657Z,60
2019-03-02T09:29:28.933Z,60
2019-03-02T09:30:29.244Z,60
2019-03-02T09:31:38.310Z,65
2019-03-02T09:32:28.986Z,65
2019-03-02T09:33:33.769Z,65
2019-03-02T09:34:29.672Z,65
2019-03-02T09:35:29.065Z,65
2019-03-02T09:36:33.437Z,60
2019-03-02T09:37:29.348Z,60
2019-03-02T09:38:30.203Z,65
2019-03-02T09:39:37.184Z,65
2019-03-02T09:40:31.511Z,65
2019-03-02T09:41:32.208Z,65
2019-03-02T09:42:28.921Z,60
2019-03-02T09:43:28.943Z,60
2019-03-02T09:44:32.710Z,60
2019-03-02T09:45:29.236Z,55
2019-03-02T09:46:32.937Z,50
2019-03-02T09:47:29.285Z,45
2019-03-02T09:48:32.040Z,45
2019-03-02T09:49:29.357Z,55
2019-03-02T09:50:30.934Z,60
2019-03-02T09:51:29.085Z,60
2019-03-02T09:52:29.366Z,65
2019-03-02T09:53:29.647Z,65
2019-03-02T09:54:28.887Z,60
2019-03-02T09:55:30.391Z,60
2019-03-02T09:56:29.450Z,60
2019-03-02T09:57:30.098Z,60
2019-03-02T09:58:34.484Z,65
2019-03-02T09:59:29.497Z,65
2019-03-02T10:00:33.249Z,65
2019-03-02T10:01:29.540Z,65
2019-03-02T10:02:29.293Z,65
2019-03-02T10:03:34.901Z,65
2019-03-02T10:04:29.859Z,65
2019-03-02T10:05:31.125Z,65
2019-03-02T10:06:32.222Z,65
2019-03-02T10:07:34.466Z,65
2019-03-02T10:08:29.671Z,60
2019-03-02T10:09:33.895Z,60
2019-03-02T10:10:35.510Z,65
2019-03-02T10:11:31.151Z,65
2019-03-02T10:12:29.745Z,65
2019-03-02T10:13:30.079Z,65
2019-03-02T10:14:35.062Z,60
2019-03-02T10:15:29.814Z,60
2019-03-02T10:16:29.561Z,65
2019-03-02T10:17:30.541Z,70
2019-03-02T10:18:29.612Z,70
2019-03-02T10:19:33.276Z,65
2019-03-02T10:20:30.433Z,65
2019-03-02T10:21:30.444Z,65
2019-03-02T10:22:35.144Z,60
2019-03-02T10:23:29.958Z,65
2019-03-02T10:24:30.271Z,70
2019-03-02T10:25:37.611Z,65
2019-03-02T10:26:30.543Z,65
2019-03-02T10:27:31.258Z,65
2019-03-02T10:28:33.977Z,65
2019-03-02T10:29:32.126Z,65
2019-03-02T10:30:33.161Z,65
2019-03-02T10:31:29.850Z,60
2019-03-02T10:32:29.619Z,60
2019-03-02T10:33:35.225Z,60
2019-03-02T10:34:29.906Z,60
2019-03-02T10:35:30.203Z,60
2019-03-02T10:36:36.804Z,55
2019-03-02T10:37:30.227Z,55
2019-03-02T10:38:31.304Z,60
2019-03-02T10:39:34.965Z,60
2019-03-02T10:40:32.001Z,55
2019-03-02T10:41:31.040Z,50
2019-03-02T10:42:31.881Z,50
2019-03-02T10:43:30.601Z,50
2019-03-02T10:44:31.625Z,50
2019-03-02T10:45:30.390Z,50
2019-03-02T10:46:31.638Z,45
2019-03-02T10:47:30.427Z,50
2019-03-02T10:48:30.437Z,45
2019-03-02T10:49:30.724Z,45
2019-03-02T10:50:33.121Z,45
2019-03-02T10:51:33.874Z,40
2019-03-02T10:52:30.259Z,40
2019-03-02T10:53:34.311Z,35
2019-03-02T10:54:34.822Z,35
2019-03-02T10:55:30.842Z,40
2019-03-02T10:56:36.438Z,45
2019-03-02T10:57:30.659Z,40
2019-03-02T10:58:30.370Z,30
2019-03-02T10:59:30.147Z,30
2019-03-02T11:00:38.517Z,40
2019-03-02T11:01:32.833Z,45
2019-03-02T11:02:32.626Z,40
2019-03-02T11:03:35.650Z,40
2019-03-02T11:04:32.429Z,45
2019-03-02T11:05:30.772Z,50
2019-03-02T11:06:33.025Z,45
2019-03-02T11:07:31.080Z,45
2019-03-02T11:08:33.879Z,50
2019-03-02T11:09:32.774Z,50
2019-03-02T11:10:33.471Z,50
2019-03-02T11:11:35.891Z,45
2019-03-02T11:12:30.640Z,50
2019-03-02T11:13:30.666Z,50
2019-03-02T11:14:33.358Z,55
2019-03-02T11:15:30.695Z,50
2019-03-02T11:16:30.712Z,45
2019-03-02T11:17:32.382Z,55
2019-03-02T11:18:36.535Z,60
2019-03-02T11:19:30.781Z,55
2019-03-02T11:20:33.656Z,55
2019-03-02T11:21:34.603Z,55
2019-03-02T11:22:40.767Z,50
2019-03-02T11:23:32.096Z,45
2019-03-02T11:24:33.084Z,45
2019-03-02T11:25:30.620Z,50
2019-03-02T11:26:31.164Z,50
2019-03-02T11:27:31.447Z,45
2019-03-02T11:28:30.960Z,45
2019-03-02T11:29:31.591Z,40
2019-03-02T11:30:31.913Z,40
2019-03-02T11:31:31.527Z,40
2019-03-02T11:32:31.817Z,40
2019-03-02T11:33:35.333Z,45
2019-03-02T11:34:35.646Z,45
2019-03-02T11:35:31.350Z,50
2019-03-02T11:36:31.687Z,50
2019-03-02T11:37:34.345Z,45
2019-03-02T11:38:33.266Z,45
2019-03-02T11:39:31.684Z,40
2019-03-02T11:40:35.622Z,40
2019-03-02T11:41:31.727Z,50
2019-03-02T11:42:31.484Z,50
2019-03-02T11:43:31.764Z,40
2019-03-02T11:44:31.523Z,35
2019-03-02T11:45:31.794Z,40
2019-03-02T11:46:31.550Z,45
2019-03-02T11:47:36.538Z,50
2019-03-02T11:48:31.329Z,55
2019-03-02T11:49:43.530Z,60
2019-03-02T11:50:31.660Z,60
2019-03-02T11:51:34.470Z,65
2019-03-02T11:52:31.143Z,65
2019-03-02T11:53:33.366Z,70
2019-03-02T11:54:37.446Z,65
2019-03-02T11:55:33.642Z,65
2019-03-02T11:56:38.967Z,70
2019-03-02T11:57:31.555Z,65
2019-03-02T11:58:36.874Z,65
2019-03-02T11:59:31.816Z,60
2019-03-02T12:00:42.339Z,65
2019-03-02T12:01:36.479Z,65
2019-03-02T12:02:32.869Z,65
2019-03-02T12:03:35.219Z,65
2019-03-02T12:04:31.896Z,65
2019-03-02T12:05:37.475Z,65
2019-03-02T12:06:31.420Z,70
2019-03-02T12:07:31.959Z,65
2019-03-02T12:08:32.719Z,65
2019-03-02T12:09:32.311Z,60
2019-03-02T12:10:32.581Z,60
2019-03-02T12:11:33.643Z,55
2019-03-02T12:12:31.800Z,60
2019-03-02T12:13:37.188Z,60
2019-03-02T12:14:31.834Z,60
2019-03-02T12:15:34.653Z,60
2019-03-02T12:16:35.437Z,60
2019-03-02T12:17:32.167Z,60
2019-03-02T12:18:31.652Z,70
2019-03-02T12:19:36.481Z,75
2019-03-02T12:20:31.953Z,75
2019-03-02T12:21:32.233Z,75
2019-03-02T12:22:37.121Z,75
2019-03-02T12:23:37.521Z,70
2019-03-02T12:24:32.490Z,70
2019-03-02T12:25:37.748Z,70
2019-03-02T12:26:33.744Z,65
2019-03-02T12:27:33.147Z,60
2019-03-02T12:28:36.193Z,55
2019-03-02T12:29:32.659Z,50
2019-03-02T12:30:35.251Z,50
2019-03-02T12:31:36.659Z,50
2019-03-02T12:32:32.195Z,50
2019-03-02T12:33:32.214Z,50
2019-03-02T12:34:37.210Z,50
2019-03-02T12:35:41.379Z,45
2019-03-02T12:36:32.800Z,50
2019-03-02T12:37:39.535Z,50
2019-03-02T12:38:33.131Z,50
2019-03-02T12:39:33.010Z,45
2019-03-02T12:40:36.206Z,45
2019-03-02T12:41:32.624Z,45
2019-03-02T12:42:37.464Z,40
2019-03-02T12:43:32.925Z,40
2019-03-02T12:44:32.434Z,35
2019-03-02T12:45:36.341Z,35
2019-03-02T12:46:32.204Z,40
2019-03-02T12:47:37.263Z,45
2019-03-02T12:48:33.724Z,45
2019-03-02T12:49:32.793Z,45
2019-03-02T12:50:35.518Z,45
2019-03-02T12:51:35.086Z,45
2019-03-02T12:52:35.600Z,45
2019-03-02T12:53:37.532Z,45
2019-03-02T12:54:33.805Z,40
2019-03-02T12:55:32.903Z,35
2019-03-02T12:56:37.622Z,35
2019-03-02T12:57:33.204Z,35
2019-03-02T12:58:33.333Z,35
2019-03-02T12:59:35.895Z,35
2019-03-02T13:00:33.263Z,35
2019-03-02T13:01:37.658Z,35
2019-03-02T13:02:33.036Z,40
2019-03-02T13:03:38.985Z,40
2019-03-02T13:04:32.821Z,40
2019-03-02T13:05:33.391Z,40
2019-03-02T13:06:35.789Z,40
2019-03-02T13:07:32.614Z,40
2019-03-02T13:08:37.112Z,40
2019-03-02T13:09:36.787Z,35
2019-03-02T13:10:33.461Z,35
2019-03-02T13:11:37.495Z,30
2019-03-02T13:12:33.245Z,30
2019-03-02T13:13:33.253Z,30
2019-03-02T13:14:38.706Z,30
2019-03-02T13:15:33.557Z,30
2019-03-02T13:16:33.935Z,30
2019-03-02T13:17:37.058Z,35
2019-03-02T13:18:33.610Z,35
2019-03-02T13:19:35.785Z,30
2019-03-02T13:20:35.520Z,30
2019-03-02T13:21:33.413Z,35
2019-03-02T13:22:36.747Z,35
2019-03-02T13:23:33.456Z,35
2019-03-02T13:24:33.470Z,35
2019-03-02T13:25:38.849Z,35
2019-03-02T13:26:32.984Z,35
2019-03-02T13:27:34.294Z,30
2019-03-02T13:28:36.932Z,30
2019-03-02T13:29:34.582Z,30
2019-03-02T13:30:36.130Z,30
2019-03-02T13:31:33.083Z,30
2019-03-02T13:32:33.371Z,25
2019-03-02T13:33:39.028Z,25
2019-03-02T13:34:33.926Z,25
2019-03-02T13:35:33.417Z,25
2019-03-02T13:36:33.709Z,25
2019-03-02T13:37:34.013Z,25
2019-03-02T13:38:38.280Z,25
2019-03-02T13:39:33.766Z,30
2019-03-02T13:40:38.365Z,30
2019-03-02T13:41:42.876Z,30
2019-03-02T13:42:34.090Z,35
2019-03-02T13:43:37.924Z,40
2019-03-02T13:44:33.331Z,50
2019-03-02T13:45:33.873Z,65
2019-03-02T13:46:37.463Z,70
2019-03-02T13:47:33.652Z,70
2019-03-02T13:48:34.960Z,75
2019-03-02T13:49:37.234Z,80
2019-03-02T13:50:33.987Z,80
2019-03-02T13:51:39.759Z,80
2019-03-02T13:52:34.012Z,85
2019-03-02T13:53:34.054Z,85
2019-03-02T13:54:37.315Z,90
2019-03-02T13:55:34.381Z,90
2019-03-02T13:56:36.612Z,90
2019-03-02T13:57:37.887Z,90
2019-03-02T13:58:34.128Z,85
2019-03-02T13:59:37.879Z,85
2019-03-02T14:00:34.431Z,90
2019-03-02T14:01:35.647Z,90
2019-03-02T14:02:38.226Z,90
2019-03-02T14:03:33.698Z,90
2019-03-02T14:04:38.952Z,85
2019-03-02T14:05:34.219Z,85
2019-03-02T14:06:34.035Z,85
2019-03-02T14:07:38.091Z,80
2019-03-02T14:08:34.331Z,80
2019-03-02T14:09:34.357Z,80
2019-03-02T14:10:34.105Z,80
2019-03-02T14:11:36.323Z,80
2019-03-02T14:12:34.456Z,80
2019-03-02T14:13:37.579Z,80
2019-03-02T14:14:33.914Z,80
2019-03-02T14:15:34.462Z,80
2019-03-02T14:16:37.951Z,80
2019-03-02T14:17:36.915Z,80
2019-03-02T14:18:37.569Z,80
2019-03-02T14:19:34.310Z,80
2019-03-02T14:20:35.386Z,80
2019-03-02T14:21:38.557Z,75
2019-03-02T14:22:34.360Z,75
2019-03-02T14:23:39.118Z,80
2019-03-02T14:24:34.379Z,80
2019-03-02T14:25:34.136Z,80
2019-03-02T14:26:34.426Z,80
2019-03-02T14:27:34.702Z,80
2019-03-02T14:28:39.484Z,80
2019-03-02T14:29:34.737Z,80
2019-03-02T14:30:34.863Z,80
2019-03-02T14:31:37.837Z,80
2019-03-02T14:32:34.820Z,80